Time;durP1;ratioP1;P1;durP2;ratioP2;P2;SDS_P1;SDS_P2;PMS_P1;PMS_P2;Temp;Humidity;BMP_temperature;BMP_pressure;BME280_temperature;BME280_humidity;BME280_pressure;Samples;Min_cycle;Max_cycle;Signal;HPM_P1;HPM_P2
2023/04/03 00:01:28;;;;;;;1.95;1.10;;;3.10;99.90;;;;;;5067055;28;20449;-80
2023/04/03 00:03:53;;;;;;;2.75;1.10;;;2.30;99.90;;;;;;5066672;28;20036;-80
2023/04/03 00:06:19;;;;;;;1.17;1.00;;;2.30;99.90;;;;;;5066925;28;20134;-80
2023/04/03 00:08:45;;;;;;;1.65;1.17;;;2.30;99.90;;;;;;5067610;28;20047;-80
2023/04/03 00:11:11;;;;;;;1.13;0.80;;;2.20;99.90;;;;;;5066190;28;20099;-80
2023/04/03 00:13:37;;;;;;;2.63;1.33;;;2.20;99.90;;;;;;5067819;28;20044;-80
2023/04/03 00:16:04;;;;;;;1.25;0.95;;;2.20;99.90;;;;;;5067207;28;20063;-80
2023/04/03 00:18:30;;;;;;;1.40;0.95;;;2.20;99.90;;;;;;5088316;28;20044;-80
2023/04/03 00:20:55;;;;;;;2.58;1.23;;;2.10;99.90;;;;;;5053636;28;21170;-80
2023/04/03 00:23:23;;;;;;;2.15;1.10;;;2.20;99.90;;;;;;5087829;28;20043;-80
2023/04/03 00:25:49;;;;;;;0.90;0.88;;;2.10;99.90;;;;;;5071443;28;20121;-80
2023/04/03 00:28:15;;;;;;;3.22;1.10;;;2.10;99.90;;;;;;5088567;28;20050;-80
2023/04/03 00:30:41;;;;;;;2.30;1.20;;;2.10;99.90;;;;;;5069814;28;20048;-80
2023/04/03 00:33:06;;;;;;;3.25;0.80;;;2.50;99.90;;;;;;5089650;28;20051;-80
2023/04/03 00:35:34;;;;;;;1.98;1.00;;;2.10;99.90;;;;;;5051408;28;20044;-80
2023/04/03 00:38:00;;;;;;;2.08;1.17;;;2.00;99.90;;;;;;5069997;28;20143;-80
2023/04/03 00:40:27;;;;;;;2.30;1.30;;;2.00;99.90;;;;;;5069976;28;20130;-80
2023/04/03 00:42:58;;;;;;;2.30;1.30;;;2.00;99.90;;;;;;5089934;28;20169;-80
2023/04/03 00:45:34;;;;;;;1.50;1.00;;;2.00;99.90;;;;;;5079960;28;20051;-80
2023/04/03 00:48:01;;;;;;;3.58;1.35;;;2.00;99.90;;;;;;5069799;28;20405;-80
2023/04/03 00:50:29;;;;;;;1.50;1.05;;;1.90;99.90;;;;;;5066287;28;20051;-80
2023/04/03 00:52:55;;;;;;;1.63;0.98;;;1.50;99.90;;;;;;5067828;28;20044;-80
2023/04/03 00:55:22;;;;;;;2.58;1.08;;;1.90;99.90;;;;;;5053844;28;20044;-80
2023/04/03 00:57:48;;;;;;;1.77;1.08;;;1.90;99.90;;;;;;5088577;28;20493;-80
2023/04/03 01:00:18;;;;;;;2.67;1.15;;;1.80;99.90;;;;;;5070636;28;20065;-80
2023/04/03 01:02:45;;;;;;;1.05;0.93;;;1.70;99.90;;;;;;5086511;28;20114;-80
2023/04/03 01:05:11;;;;;;;1.80;1.17;;;1.80;99.90;;;;;;5088608;28;20044;-80
2023/04/03 01:07:37;;;;;;;3.20;1.30;;;1.70;99.90;;;;;;5052193;28;20047;-80
2023/04/03 01:10:07;;;;;;;2.25;0.93;;;1.70;99.90;;;;;;5089451;28;20070;-80
2023/04/03 01:12:37;;;;;;;3.00;1.27;;;1.60;99.90;;;;;;5070165;28;20052;-80
2023/04/03 01:15:34;;;;;;;2.08;0.90;;;1.60;99.90;;;;;;5088651;28;20043;-80
2023/04/03 01:18:00;;;;;;;2.08;1.13;;;1.60;99.90;;;;;;5065791;28;20051;-80
2023/04/03 01:20:32;;;;;;;2.83;1.10;;;1.50;99.90;;;;;;5069331;28;20383;-80
2023/04/03 01:23:15;;;;;;;1.88;1.17;;;1.50;99.90;;;;;;5070542;28;20044;-80
2023/04/03 01:25:47;;;;;;;3.58;1.20;;;1.50;99.90;;;;;;5057379;28;20059;-80
2023/04/03 01:28:16;;;;;;;2.80;0.98;;;1.50;99.90;;;;;;5068809;28;20044;-80
2023/04/03 01:31:20;;;;;;;2.92;1.20;;;1.50;99.90;;;;;;5042618;28;20036;-80
2023/04/03 01:33:45;;;;;;;1.80;1.10;;;1.40;99.90;;;;;;5069348;28;20130;-80
2023/04/03 01:36:16;;;;;;;2.38;1.17;;;1.40;99.90;;;;;;5069387;28;20045;-80
2023/04/03 01:38:42;;;;;;;1.58;1.02;;;1.40;99.90;;;;;;5070413;28;20063;-80
2023/04/03 01:41:08;;;;;;;1.10;1.00;;;1.30;99.90;;;;;;5086401;28;20048;-80
2023/04/03 01:43:33;;;;;;;1.92;1.20;;;1.30;99.90;;;;;;5054405;28;20051;-80
2023/04/03 01:45:59;;;;;;;1.58;0.88;;;1.30;99.90;;;;;;5066669;28;21757;-80
2023/04/03 01:48:24;;;;;;;2.47;1.10;;;1.20;99.90;;;;;;5068665;28;20048;-80
2023/04/03 01:50:53;;;;;;;2.28;1.05;;;1.40;99.90;;;;;;5053729;28;20040;-80
2023/04/03 01:53:19;;;;;;;2.90;1.58;;;1.80;99.90;;;;;;5052407;28;20555;-80
2023/04/03 01:55:45;;;;;;;2.00;1.20;;;1.20;99.90;;;;;;5069208;28;20051;-80
2023/04/03 01:58:10;;;;;;;2.58;1.48;;;1.10;99.90;;;;;;5068030;28;20059;-80
2023/04/03 02:00:36;;;;;;;2.53;1.17;;;1.10;99.90;;;;;;5069120;28;20044;-80
2023/04/03 02:03:02;;;;;;;3.83;1.30;;;1.10;99.90;;;;;;5086716;28;20121;-80
2023/04/03 02:05:28;;;;;;;1.67;1.10;;;1.10;99.90;;;;;;5087341;28;20051;-80
2023/04/03 02:07:53;;;;;;;2.63;1.27;;;1.10;99.90;;;;;;5086616;28;20391;-80
2023/04/03 02:10:19;;;;;;;2.00;1.10;;;1.00;99.90;;;;;;5086486;28;20055;-80
2023/04/03 02:12:45;;;;;;;2.17;1.10;;;1.00;99.90;;;;;;5085974;28;20042;-80
2023/04/03 02:15:10;;;;;;;3.17;1.35;;;1.00;99.90;;;;;;5053839;28;20099;-80
2023/04/03 02:17:36;;;;;;;3.45;1.40;;;0.90;99.90;;;;;;5051555;28;20046;-80
2023/04/03 02:20:03;;;;;;;4.68;1.77;;;0.90;99.90;;;;;;5088082;28;20046;-80
2023/04/03 02:22:31;;;;;;;4.88;1.35;;;0.90;99.90;;;;;;5052676;28;20040;-80
2023/04/03 02:24:57;;;;;;;4.63;1.30;;;0.90;99.90;;;;;;5067164;28;20040;-80
2023/04/03 02:27:23;;;;;;;2.03;1.33;;;0.90;99.90;;;;;;5067999;28;20044;-80
2023/04/03 02:29:48;;;;;;;2.35;1.27;;;0.90;99.90;;;;;;5047807;28;20043;-80
2023/04/03 02:32:14;;;;;;;2.97;1.40;;;0.80;99.90;;;;;;5087462;28;20132;-80
2023/04/03 02:34:39;;;;;;;2.08;1.20;;;0.80;99.90;;;;;;5065443;28;20193;-80
2023/04/03 02:37:06;;;;;;;1.88;1.33;;;0.80;99.90;;;;;;5051622;28;20480;-80
2023/04/03 02:39:31;;;;;;;3.58;1.17;;;0.80;99.90;;;;;;5068641;28;20500;-80
2023/04/03 02:41:57;;;;;;;4.38;1.23;;;0.80;99.90;;;;;;5068310;28;20067;-80
2023/04/03 02:44:23;;;;;;;2.40;1.08;;;0.80;99.90;;;;;;5068059;28;20078;-80
2023/04/03 02:46:49;;;;;;;2.53;1.10;;;0.70;99.90;;;;;;5051416;28;20047;-80
2023/04/03 02:49:15;;;;;;;1.80;1.10;;;0.70;99.90;;;;;;5066980;28;20036;-80
2023/04/03 02:51:41;;;;;;;3.00;1.20;;;0.70;99.90;;;;;;5068642;28;20066;-80
2023/04/03 02:54:07;;;;;;;2.60;1.30;;;0.60;99.90;;;;;;5067336;28;21111;-80
2023/04/03 02:56:33;;;;;;;5.38;1.40;;;1.30;99.90;;;;;;5084444;28;20048;-80
2023/04/03 02:58:58;;;;;;;3.17;1.50;;;0.60;99.90;;;;;;5066847;28;20101;-80
2023/04/03 03:01:26;;;;;;;7.03;1.58;;;0.60;99.90;;;;;;5069210;28;20519;-80
2023/04/03 03:03:52;;;;;;;2.85;1.20;;;0.60;99.90;;;;;;5066860;28;20048;-80
2023/04/03 03:06:18;;;;;;;1.85;1.38;;;0.60;99.90;;;;;;5067232;28;20048;-80
2023/04/03 03:08:43;;;;;;;3.53;1.30;;;0.50;99.90;;;;;;5068704;28;20051;-80
2023/04/03 03:11:10;;;;;;;4.05;2.22;;;0.50;99.90;;;;;;5068619;28;20067;-80
2023/04/03 03:13:38;;;;;;;2.05;1.50;;;0.50;99.90;;;;;;5085177;28;20044;-80
2023/04/03 03:16:05;;;;;;;5.90;1.70;;;0.40;99.90;;;;;;5080275;28;20032;-80
2023/04/03 03:18:30;;;;;;;3.38;1.40;;;0.40;99.90;;;;;;5065520;28;21889;-80
2023/04/03 03:20:58;;;;;;;4.32;1.13;;;0.40;99.90;;;;;;5084988;28;20083;-80
2023/04/03 03:23:25;;;;;;;4.35;1.50;;;0.40;99.90;;;;;;5068478;28;20396;-80
2023/04/03 03:25:59;;;;;;;4.13;1.48;;;0.30;99.90;;;;;;5065650;28;20052;-80
2023/04/03 03:28:25;;;;;;;3.33;1.60;;;0.30;99.90;;;;;;5084732;28;20455;-80
2023/04/03 03:30:50;;;;;;;2.72;1.50;;;0.30;99.90;;;;;;5067263;28;20040;-80
2023/04/03 03:33:17;;;;;;;2.55;1.50;;;0.30;99.90;;;;;;5060906;28;20040;-80
2023/04/03 03:35:43;;;;;;;6.18;2.90;;;0.20;99.90;;;;;;5078217;28;20462;-80
2023/04/03 03:38:09;;;;;;;3.22;1.85;;;0.20;99.90;;;;;;5083612;28;20060;-80
2023/04/03 03:40:35;;;;;;;5.07;1.67;;;0.20;99.90;;;;;;5051406;28;20052;-80
2023/04/03 03:43:00;;;;;;;2.20;1.95;;;0.10;99.90;;;;;;5086664;28;20048;-80
2023/04/03 03:45:26;;;;;;;4.35;1.95;;;0.10;99.90;;;;;;5067534;28;20040;-80
2023/04/03 03:47:52;;;;;;;3.63;1.70;;;0.10;99.90;;;;;;5081792;28;20044;-80
2023/04/03 03:50:20;;;;;;;2.63;1.63;;;0.50;99.90;;;;;;5086276;28;20135;-80
2023/04/03 03:52:46;;;;;;;4.07;1.80;;;0.00;99.90;;;;;;5068757;28;20085;-80
2023/04/03 03:55:12;;;;;;;2.47;1.75;;;0.00;99.90;;;;;;5088963;28;20063;-80
2023/04/03 03:57:38;;;;;;;2.58;1.38;;;-0.10;99.90;;;;;;5088692;28;20044;-80
2023/04/03 04:00:04;;;;;;;4.03;1.80;;;-0.10;99.90;;;;;;5091648;28;20055;-80
2023/04/03 04:02:30;;;;;;;3.10;1.60;;;-0.10;99.90;;;;;;5070011;28;20417;-80
2023/04/03 04:04:56;;;;;;;2.65;1.38;;;-0.10;99.90;;;;;;5071507;28;20060;-80
2023/04/03 04:07:24;;;;;;;3.03;1.60;;;-0.20;99.90;;;;;;5054479;28;20463;-80
2023/04/03 04:09:50;;;;;;;3.42;1.70;;;-0.20;99.90;;;;;;5072148;28;20043;-80
2023/04/03 04:12:15;;;;;;;5.97;1.90;;;-0.20;99.90;;;;;;5048773;28;20085;-80
2023/04/03 04:14:41;;;;;;;4.60;2.03;;;-0.10;99.90;;;;;;5067953;28;20048;-80
2023/04/03 04:17:07;;;;;;;3.92;2.22;;;-0.10;99.90;;;;;;5052112;28;20040;-80
2023/04/03 04:19:33;;;;;;;4.45;1.70;;;-0.20;99.90;;;;;;5070958;28;20776;-80
2023/04/03 04:21:58;;;;;;;4.57;2.05;;;-0.20;99.90;;;;;;5087005;28;20060;-80
2023/04/03 04:24:24;;;;;;;4.82;1.95;;;-0.20;99.90;;;;;;5087916;28;20410;-80
2023/04/03 04:26:50;;;;;;;3.85;1.80;;;-0.30;99.90;;;;;;5089233;28;20126;-80
2023/04/03 04:29:15;;;;;;;4.15;1.85;;;-0.30;99.90;;;;;;5070424;28;20055;-80
2023/04/03 04:31:41;;;;;;;2.75;1.85;;;-0.30;99.90;;;;;;5070640;28;20050;-80
2023/04/03 04:34:07;;;;;;;4.57;2.35;;;-0.30;99.90;;;;;;5037140;28;20383;-80
2023/04/03 04:36:32;;;;;;;2.58;1.95;;;-0.30;99.90;;;;;;5070594;28;20118;-80
2023/04/03 04:38:58;;;;;;;4.38;1.70;;;-0.40;99.90;;;;;;5069035;28;20048;-80
2023/04/03 04:41:24;;;;;;;3.92;1.95;;;-0.40;99.90;;;;;;5089925;28;20040;-80
2023/04/03 04:43:50;;;;;;;9.43;3.58;;;-0.40;99.90;;;;;;5069909;28;20502;-80
2023/04/03 04:46:17;;;;;;;5.68;2.13;;;-0.50;99.90;;;;;;5051392;28;20063;-80
2023/04/03 04:48:43;;;;;;;5.18;3.47;;;-0.50;99.90;;;;;;5069330;28;20036;-80
2023/04/03 04:51:08;;;;;;;3.80;1.75;;;-0.50;99.90;;;;;;5089360;28;20131;-80
2023/04/03 04:53:34;;;;;;;4.93;1.88;;;-0.50;99.90;;;;;;5088048;28;20181;-80
2023/04/03 04:56:00;;;;;;;4.43;1.90;;;-0.50;99.90;;;;;;5088865;28;20051;-80
2023/04/03 04:58:26;;;;;;;3.60;2.20;;;-0.50;99.90;;;;;;5069445;28;20055;-80
2023/04/03 05:01:02;;;;;;;5.65;2.55;;;-0.50;99.90;;;;;;5053069;28;20082;-80
2023/04/03 05:03:31;;;;;;;3.35;2.17;;;-0.50;99.90;;;;;;5054176;28;20036;-80
2023/04/03 05:05:57;;;;;;;3.45;2.30;;;-0.50;99.90;;;;;;5070367;28;20414;-80
2023/04/03 05:08:24;;;;;;;4.53;2.58;;;-0.50;99.90;;;;;;5052107;28;20137;-80
2023/04/03 05:10:49;;;;;;;3.72;2.50;;;0.20;99.90;;;;;;5071470;28;20051;-80
2023/04/03 05:13:15;;;;;;;4.53;2.42;;;-0.40;99.90;;;;;;5052523;28;20044;-80
2023/04/03 05:15:41;;;;;;;4.78;2.58;;;-0.50;99.90;;;;;;5087969;28;20051;-81
2023/04/03 05:18:07;;;;;;;3.00;2.55;;;0.20;99.90;;;;;;5070353;28;20044;-81
2023/04/03 05:20:33;;;;;;;2.95;2.20;;;-0.40;99.90;;;;;;5069468;28;20055;-80
2023/04/03 05:22:59;;;;;;;6.30;2.80;;;-0.40;99.90;;;;;;5084276;28;20051;-80
2023/04/03 05:25:25;;;;;;;4.15;2.40;;;-0.40;99.90;;;;;;5087378;28;20047;-80
2023/04/03 05:27:51;;;;;;;5.65;2.80;;;-0.40;99.90;;;;;;5087055;28;20063;-80
2023/04/03 05:30:17;;;;;;;7.15;2.65;;;-0.40;99.90;;;;;;5071809;28;20066;-79
2023/04/03 05:32:42;;;;;;;6.78;2.78;;;-0.40;99.90;;;;;;5068024;28;20052;-80
2023/04/03 05:35:09;;;;;;;4.80;2.47;;;-0.30;99.90;;;;;;5085588;28;20126;-80
2023/04/03 05:37:34;;;;;;;4.25;2.53;;;-0.30;99.90;;;;;;5085516;28;20044;-80
2023/04/03 05:40:01;;;;;;;5.50;2.38;;;-0.30;99.90;;;;;;5071436;28;20051;-80
2023/04/03 05:42:26;;;;;;;3.97;2.30;;;-0.30;99.90;;;;;;5086077;28;20036;-80
2023/04/03 05:44:52;;;;;;;3.67;2.42;;;-0.30;99.90;;;;;;5089363;28;20128;-80
2023/04/03 05:47:19;;;;;;;2.30;2.10;;;-0.30;99.90;;;;;;5049887;28;20048;-81
2023/04/03 05:49:45;;;;;;;6.88;2.55;;;-0.20;99.90;;;;;;5068669;28;20090;-81
2023/04/03 05:52:27;;;;;;;5.07;2.30;;;-0.20;99.90;;;;;;5076405;28;20450;-81
2023/04/03 05:54:52;;;;;;;5.45;2.63;;;-0.20;99.90;;;;;;5079517;28;20074;-81
2023/04/03 05:57:18;;;;;;;5.55;2.60;;;-0.10;99.90;;;;;;5087142;28;20048;-81
2023/04/03 05:59:46;;;;;;;7.05;3.17;;;-0.10;99.90;;;;;;5069852;28;20051;-81
2023/04/03 06:02:14;;;;;;;3.40;2.50;;;0.00;99.90;;;;;;5071139;28;20044;-81
2023/04/03 06:04:43;;;;;;;5.28;3.10;;;0.00;99.90;;;;;;5069831;28;20059;-81
2023/04/03 06:07:13;;;;;;;4.30;2.50;;;0.00;99.90;;;;;;5052811;28;20050;-80
2023/04/03 06:09:39;;;;;;;6.25;3.08;;;0.10;99.90;;;;;;5070313;28;20048;-82
2023/04/03 06:12:04;;;;;;;7.32;2.70;;;0.10;99.90;;;;;;5087973;28;20551;-81
2023/04/03 06:14:30;;;;;;;5.45;2.65;;;0.20;99.90;;;;;;5087790;28;20098;-81
2023/04/03 06:16:56;;;;;;;7.20;2.63;;;0.20;99.90;;;;;;5052480;28;20074;-82
2023/04/03 06:19:22;;;;;;;4.50;2.75;;;1.00;99.90;;;;;;5069758;28;20477;-82
2023/04/03 06:21:47;;;;;;;4.22;2.42;;;0.40;99.90;;;;;;5087241;28;20040;-82
2023/04/03 06:24:15;;;;;;;5.32;2.78;;;0.50;99.90;;;;;;5070488;28;20090;-81
2023/04/03 06:26:41;;;;;;;7.22;2.50;;;0.60;99.90;;;;;;5089019;28;20036;-81
2023/04/03 06:29:07;;;;;;;6.28;2.78;;;0.70;99.90;;;;;;5068786;28;20117;-80
2023/04/03 06:31:36;;;;;;;4.50;2.58;;;0.80;99.90;;;;;;5086657;28;20131;-82
2023/04/03 06:34:03;;;;;;;4.85;2.92;;;0.80;99.90;;;;;;5087640;28;20059;-81
2023/04/03 06:36:29;;;;;;;4.43;2.70;;;0.90;99.90;;;;;;5069748;28;20406;-80
2023/04/03 06:38:55;;;;;;;6.38;2.33;;;1.00;99.90;;;;;;5070084;28;20043;-81
2023/04/03 06:41:21;;;;;;;9.93;2.35;;;1.10;99.90;;;;;;5067815;28;20482;-81
2023/04/03 06:43:47;;;;;;;6.72;2.83;;;1.10;99.90;;;;;;5087805;28;20036;-81
2023/04/03 06:46:20;;;;;;;4.38;3.00;;;1.20;99.90;;;;;;5070088;28;20070;-81
2023/04/03 06:48:46;;;;;;;3.75;2.20;;;1.30;99.90;;;;;;5068724;28;20569;-79
2023/04/03 06:51:19;;;;;;;5.80;2.20;;;1.40;99.90;;;;;;5067373;28;20052;-81
2023/04/03 06:53:45;;;;;;;4.53;2.08;;;1.50;99.90;;;;;;5048717;28;20036;-81
2023/04/03 06:56:11;;;;;;;3.30;2.15;;;1.60;99.90;;;;;;5049273;28;20084;-81
2023/04/03 06:58:37;;;;;;;3.92;2.50;;;1.70;99.90;;;;;;5051421;28;20534;-81
2023/04/03 07:01:02;;;;;;;5.03;2.55;;;1.80;99.90;;;;;;5052359;28;20042;-82
2023/04/03 07:03:28;;;;;;;4.05;2.42;;;1.90;99.90;;;;;;5069221;28;20066;-81
2023/04/03 07:05:55;;;;;;;3.42;1.90;;;2.00;99.90;;;;;;5070066;28;20441;-81
2023/04/03 07:08:22;;;;;;;3.60;1.90;;;2.10;99.90;;;;;;5069711;28;20450;-81
2023/04/03 07:10:48;;;;;;;6.55;2.08;;;2.20;99.90;;;;;;5070908;28;20429;-81
2023/04/03 07:13:14;;;;;;;5.38;2.47;;;2.30;99.90;;;;;;5070092;28;20044;-81
2023/04/03 07:15:40;;;;;;;6.97;1.77;;;2.40;99.90;;;;;;5053399;28;20044;-82
2023/04/03 07:18:05;;;;;;;3.97;1.88;;;2.50;99.90;;;;;;5087853;28;20044;-82
2023/04/03 07:20:31;;;;;;;4.18;1.70;;;2.70;99.90;;;;;;5069259;28;20032;-82
2023/04/03 07:22:57;;;;;;;2.72;1.60;;;2.70;99.90;;;;;;5087476;28;20048;-81
2023/04/03 07:25:22;;;;;;;4.82;1.70;;;2.90;99.90;;;;;;5087064;28;20044;-82
2023/04/03 07:27:49;;;;;;;4.68;1.98;;;3.00;99.90;;;;;;5088168;28;20048;-81
2023/04/03 07:30:14;;;;;;;5.03;1.95;;;3.10;99.90;;;;;;5073836;28;20104;-82
2023/04/03 07:32:40;;;;;;;2.97;1.65;;;3.30;99.90;;;;;;5073452;28;20044;-82
2023/04/03 07:35:06;;;;;;;4.95;2.10;;;3.40;99.90;;;;;;5056744;28;20127;-82
2023/04/03 07:37:32;;;;;;;3.95;1.95;;;3.50;99.90;;;;;;5072181;28;20070;-81
2023/04/03 07:39:58;;;;;;;1.52;1.20;;;3.60;99.90;;;;;;5073314;28;20059;-82
2023/04/03 07:42:27;;;;;;;5.95;1.77;;;3.60;99.90;;;;;;5073231;28;20824;-82
2023/04/03 07:44:53;;;;;;;3.70;1.65;;;3.60;99.90;;;;;;5056475;28;20055;-82
2023/04/03 07:47:20;;;;;;;3.95;1.70;;;3.70;99.90;;;;;;5072543;28;20081;-82
2023/04/03 07:49:45;;;;;;;6.20;1.80;;;3.80;99.90;;;;;;5072732;28;20059;-81
2023/04/03 07:52:11;;;;;;;2.70;1.42;;;3.90;99.90;;;;;;5091656;28;20040;-82
2023/04/03 07:54:37;;;;;;;3.55;1.60;;;4.00;99.90;;;;;;5072043;28;20044;-80
2023/04/03 07:57:03;;;;;;;2.95;1.70;;;4.10;99.90;;;;;;5089714;28;20424;-81
2023/04/03 07:59:29;;;;;;;4.80;2.20;;;4.10;99.90;;;;;;5091140;28;20135;-80
2023/04/03 08:01:55;;;;;;;3.85;1.70;;;4.20;99.90;;;;;;5069870;28;20055;-81
2023/04/03 08:04:21;;;;;;;3.70;1.63;;;4.40;99.90;;;;;;5088849;28;20040;-81
2023/04/03 08:06:47;;;;;;;5.70;1.60;;;4.50;99.90;;;;;;5052017;28;20117;-81
2023/04/03 08:09:15;;;;;;;2.00;1.75;;;4.50;99.90;;;;;;5055367;28;20101;-81
2023/04/03 08:11:40;;;;;;;3.20;1.88;;;4.70;99.90;;;;;;5056677;28;20457;-81
2023/04/03 08:14:06;;;;;;;3.72;1.70;;;4.60;99.90;;;;;;5092388;28;20076;-81
2023/04/03 08:16:32;;;;;;;3.55;1.90;;;5.40;99.90;;;;;;5073295;28;20523;-81
2023/04/03 08:18:59;;;;;;;2.92;1.63;;;4.80;99.90;;;;;;5055019;28;20166;-80
2023/04/03 08:21:25;;;;;;;3.25;1.95;;;4.80;99.90;;;;;;5072236;28;20095;-80
2023/04/03 08:23:51;;;;;;;4.85;1.70;;;4.90;99.90;;;;;;5091212;28;20048;-81
2023/04/03 08:26:19;;;;;;;3.22;2.03;;;4.90;99.90;;;;;;5071368;28;20055;-80
2023/04/03 08:28:45;;;;;;;4.88;1.80;;;4.90;99.90;;;;;;5071878;28;20044;-78
2023/04/03 08:31:15;;;;;;;3.13;1.75;;;4.90;99.90;;;;;;5072297;28;20048;-81
2023/04/03 08:33:41;;;;;;;3.50;1.63;;;5.00;99.90;;;;;;5088909;28;20047;-80
2023/04/03 08:36:15;;;;;;;3.92;1.63;;;5.20;99.90;;;;;;5089985;28;20040;-80
2023/04/03 08:38:41;;;;;;;2.05;1.50;;;5.40;99.90;;;;;;5088723;28;20070;-81
2023/04/03 08:41:32;;;;;;;3.13;1.40;;;5.40;99.90;;;;;;5090612;28;20043;-81
2023/04/03 08:44:11;;;;;;;4.97;1.75;;;5.60;99.90;;;;;;5064619;28;20075;-81
2023/04/03 08:46:48;;;;;;;3.22;1.45;;;5.70;99.90;;;;;;5090315;28;20051;-81
2023/04/03 08:49:29;;;;;;;2.88;1.58;;;5.80;99.90;;;;;;5070651;28;20083;-81
2023/04/03 08:51:55;;;;;;;2.78;1.40;;;5.90;99.90;;;;;;5071876;28;20066;-81
2023/04/03 08:55:01;;;;;;;5.28;1.80;;;6.00;99.90;;;;;;5071375;28;20419;-81
2023/04/03 08:57:41;;;;;;;3.17;1.30;;;6.10;99.90;;;;;;5068299;28;20063;-81
2023/04/03 09:00:21;;;;;;;4.18;1.73;;;6.20;99.90;;;;;;5070963;28;20486;-80
2023/04/03 09:02:48;;;;;;;6.93;2.20;;;6.30;99.90;;;;;;5070970;28;20487;-79
2023/04/03 09:05:18;;;;;;;3.15;1.33;;;6.40;99.90;;;;;;5090379;28;20043;-81
2023/04/03 09:07:47;;;;;;;2.03;1.40;;;6.60;98.10;;;;;;5090823;28;20048;-81
2023/04/03 09:10:15;;;;;;;1.75;1.30;;;6.60;97.20;;;;;;5072460;28;20036;-82
2023/04/03 09:12:57;;;;;;;2.08;1.25;;;6.50;97.40;;;;;;5071637;28;20421;-82
2023/04/03 09:15:27;;;;;;;2.05;1.23;;;6.60;93.30;;;;;;5071057;28;20051;-81
2023/04/03 09:18:05;;;;;;;2.72;1.35;;;6.60;96.60;;;;;;5069828;28;20044;-83
2023/04/03 09:20:53;;;;;;;1.17;1.10;;;6.70;94.00;;;;;;5071778;28;20105;-82
2023/04/03 09:23:49;;;;;;;2.47;1.27;;;6.80;86.80;;;;;;5070599;28;20146;-83
2023/04/03 09:26:19;;;;;;;2.80;1.27;;;6.90;90.00;;;;;;5070577;28;20376;-82
2023/04/03 09:28:45;;;;;;;1.52;1.17;;;7.00;90.70;;;;;;5070786;28;20503;-83
2023/04/03 09:31:22;;;;;;;2.63;1.08;;;7.10;90.90;;;;;;5070961;28;20047;-81
2023/04/03 09:33:51;;;;;;;1.10;1.00;;;7.10;86.40;;;;;;5070070;28;20391;-83
2023/04/03 09:36:41;;;;;;;1.38;0.95;;;7.10;87.40;;;;;;5089168;28;20071;-85
2023/04/03 09:39:14;;;;;;;3.78;1.30;;;7.20;78.50;;;;;;5071469;28;20512;-82
2023/04/03 09:41:40;;;;;;;2.50;1.10;;;7.30;84.00;;;;;;5069894;28;20862;-81
2023/04/03 09:44:21;;;;;;;1.65;0.90;;;7.30;82.80;;;;;;5071591;28;20040;-82
2023/04/03 09:46:47;;;;;;;2.63;0.95;;;7.30;71.90;;;;;;5068739;28;20044;-82
2023/04/03 09:49:13;;;;;;;2.60;1.10;;;7.20;78.40;;;;;;5070756;28;20070;-83
2023/04/03 09:51:38;;;;;;;4.10;0.90;;;7.20;77.40;;;;;;5069125;28;20398;-82
2023/04/03 09:54:25;;;;;;;1.05;0.80;;;7.30;77.80;;;;;;5070589;28;20433;-82
2023/04/03 09:56:53;;;;;;;1.30;0.77;;;7.20;63.60;;;;;;5069729;28;20044;-83
2023/04/03 09:59:19;;;;;;;0.95;0.70;;;7.20;71.30;;;;;;5071063;28;20498;-82
2023/04/03 10:02:22;;;;;;;1.58;0.70;;;7.30;74.00;;;;;;5053937;28;20047;-83
2023/04/03 10:04:48;;;;;;;2.28;0.80;;;7.40;70.60;;;;;;5059677;28;20514;-82
2023/04/03 10:07:37;;;;;;;2.33;0.93;;;8.00;76.20;;;;;;5070663;28;20153;-82
2023/04/03 10:10:17;;;;;;;1.58;0.65;;;7.60;69.90;;;;;;5051038;28;20052;-83
2023/04/03 10:12:42;;;;;;;1.48;0.95;;;7.80;70.40;;;;;;5052903;28;20048;-83
2023/04/03 10:15:13;;;;;;;2.40;0.68;;;7.80;72.30;;;;;;5070706;28;20048;-83
2023/04/03 10:18:01;;;;;;;2.28;1.00;;;7.90;68.90;;;;;;5069433;28;20064;-83
2023/04/03 10:20:36;;;;;;;1.85;0.93;;;7.90;63.10;;;;;;5068649;28;20165;-81
2023/04/03 10:23:41;;;;;;;1.15;0.80;;;8.00;63.70;;;;;;5069081;28;20458;-82
2023/04/03 10:26:19;;;;;;;3.35;1.10;;;8.00;61.90;;;;;;5051219;28;20048;-82
2023/04/03 10:29:01;;;;;;;2.28;0.70;;;8.00;64.90;;;;;;5070254;28;20056;-81
2023/04/03 10:31:48;;;;;;;1.90;1.02;;;8.10;62.10;;;;;;5088448;28;20044;-83
2023/04/03 10:34:28;;;;;;;1.92;1.15;;;8.20;64.90;;;;;;5067281;28;20048;-83
2023/04/03 10:37:10;;;;;;;1.67;0.82;;;8.20;65.40;;;;;;5067153;28;20134;-82
2023/04/03 10:40:05;;;;;;;3.67;0.90;;;8.10;62.70;;;;;;5069657;28;20502;-82
2023/04/03 10:42:43;;;;;;;1.75;0.77;;;8.20;66.50;;;;;;5056216;28;20059;-82
2023/04/03 10:45:20;;;;;;;2.03;0.68;;;8.20;62.20;;;;;;5069390;28;20048;-82
2023/04/03 10:47:51;;;;;;;1.88;0.80;;;8.20;62.90;;;;;;5064904;28;20108;-83
2023/04/03 10:50:54;;;;;;;2.13;1.00;;;8.60;64.20;;;;;;5065364;28;20044;-82
2023/04/03 10:53:23;;;;;;;1.80;0.80;;;8.50;62.70;;;;;;5068334;28;20036;-82
2023/04/03 10:55:51;;;;;;;1.88;1.00;;;8.60;63.40;;;;;;5069926;28;20056;-83
2023/04/03 10:58:26;;;;;;;2.83;1.42;;;8.70;61.10;;;;;;5087171;28;20059;-83
2023/04/03 11:00:53;;;;;;;2.22;0.98;;;8.60;61.80;;;;;;5069422;28;20054;-83
2023/04/03 11:03:40;;;;;;;2.15;1.00;;;8.60;64.10;;;;;;5087285;28;20040;-83
2023/04/03 11:06:10;;;;;;;1.55;0.70;;;8.70;62.40;;;;;;5068032;28;20048;-82
2023/04/03 11:08:42;;;;;;;2.45;0.70;;;8.70;62.90;;;;;;5069062;28;20097;-83
2023/04/03 11:11:21;;;;;;;;;;;8.80;61.80;;;;;;5070028;28;20048;-82
2023/04/03 11:13:57;;;;;;;1.58;0.80;;;8.90;57.20;;;;;;5087562;28;20030;-82
2023/04/03 11:16:28;;;;;;;1.88;0.93;;;9.00;59.90;;;;;;5068629;28;20513;-82
2023/04/03 11:19:05;;;;;;;3.08;0.80;;;8.90;59.30;;;;;;5068814;28;20510;-82
2023/04/03 11:21:46;;;;;;;2.33;0.90;;;8.90;58.80;;;;;;5069172;28;20056;-82
2023/04/03 11:24:26;;;;;;;2.05;1.13;;;8.90;59.10;;;;;;5068626;28;20047;-82
2023/04/03 11:26:53;;;;;;;1.35;0.85;;;8.90;58.00;;;;;;5068559;28;20051;-82
2023/04/03 11:29:24;;;;;;;2.20;0.90;;;8.90;57.70;;;;;;5069718;28;20486;-82
2023/04/03 11:31:55;;;;;;;2.60;1.10;;;9.00;58.00;;;;;;5068691;28;20052;-82
2023/04/03 11:34:38;;;;;;;2.45;1.23;;;9.00;58.00;;;;;;5087654;28;20110;-82
2023/04/03 11:37:11;;;;;;;3.10;0.90;;;9.00;57.80;;;;;;5068640;28;20058;-82
2023/04/03 11:39:39;;;;;;;1.30;0.90;;;9.10;58.50;;;;;;5069423;28;20047;-82
2023/04/03 11:42:28;;;;;;;3.80;1.23;;;9.10;57.70;;;;;;5069103;28;20463;-82
2023/04/03 11:45:16;;;;;;;2.90;1.15;;;9.10;56.60;;;;;;5068411;28;20062;-83
2023/04/03 11:48:00;;;;;;;1.88;1.08;;;9.10;57.30;;;;;;5066705;28;20056;-82
2023/04/03 11:50:42;;;;;;;2.45;0.77;;;9.10;56.70;;;;;;5068912;28;20056;-82
2023/04/03 11:53:10;;;;;;;1.98;0.90;;;9.20;56.00;;;;;;5067830;28;20072;-83
2023/04/03 11:55:43;;;;;;;1.25;0.82;;;9.30;58.40;;;;;;5087345;28;20493;-82
2023/04/03 11:58:17;;;;;;;2.00;1.33;;;9.20;55.50;;;;;;5086921;28;20047;-82
2023/04/03 12:00:50;;;;;;;3.00;0.98;;;9.20;56.80;;;;;;5033220;28;20109;-82
2023/04/03 12:03:28;;;;;;;1.30;0.95;;;9.10;57.20;;;;;;5032051;28;20053;-82
2023/04/03 12:06:06;;;;;;;2.20;1.10;;;9.10;57.40;;;;;;5048301;28;20072;-82
2023/04/03 12:08:47;;;;;;;1.40;0.90;;;9.10;57.20;;;;;;5048043;28;20495;-82
2023/04/03 12:11:12;;;;;;;4.22;1.23;;;9.20;57.10;;;;;;5031623;28;20048;-82
2023/04/03 12:13:56;;;;;;;2.38;1.10;;;9.20;57.20;;;;;;5060384;28;20406;-83
2023/04/03 12:16:32;;;;;;;2.40;1.35;;;9.10;57.40;;;;;;5054823;28;20051;-83
2023/04/03 12:19:18;;;;;;;1.45;1.10;;;9.20;58.00;;;;;;5071797;28;20048;-82
2023/04/03 12:21:51;;;;;;;4.18;1.30;;;9.20;57.50;;;;;;5073322;28;20055;-82
2023/04/03 12:24:20;;;;;;;1.45;1.00;;;9.40;59.30;;;;;;5072961;28;20059;-81
2023/04/03 12:27:17;;;;;;;;;;;;;;;;;;;;;
2023/04/03 12:30:10;;;;;;;1.48;0.93;;;9.60;57.90;;;;;;5072308;28;20059;-82
2023/04/03 12:32:46;;;;;;;3.72;1.20;;;9.50;56.50;;;;;;5053737;28;20403;-82
2023/04/03 12:35:34;;;;;;;2.25;1.00;;;9.60;59.00;;;;;;5088791;28;20051;-82
2023/04/03 12:38:12;;;;;;;1.52;1.00;;;9.40;56.30;;;;;;5052062;28;20068;-82
2023/04/03 12:40:58;;;;;;;1.38;1.10;;;9.50;57.90;;;;;;5073175;28;20067;-82
2023/04/03 12:43:42;;;;;;;2.63;1.15;;;9.60;57.50;;;;;;5057265;28;20048;-83
2023/04/03 12:46:08;;;;;;;1.67;1.00;;;9.60;55.90;;;;;;5073669;28;20055;-82
2023/04/03 12:48:54;;;;;;;1.75;1.00;;;9.70;58.30;;;;;;5069849;28;20040;-81
2023/04/03 12:51:40;;;;;;;1.10;0.90;;;9.80;56.00;;;;;;5052835;28;20055;-82
2023/04/03 12:54:27;;;;;;;2.78;1.08;;;9.80;57.70;;;;;;5068015;28;20055;-81
2023/04/03 12:57:23;;;;;;;1.67;1.00;;;9.70;56.30;;;;;;5065674;28;20047;-80
2023/04/03 12:59:49;;;;;;;2.78;1.13;;;9.70;56.90;;;;;;5069100;28;20395;-85
2023/04/03 13:02:33;;;;;;;1.80;0.90;;;9.90;57.00;;;;;;5066570;28;20048;-83
2023/04/03 13:05:06;;;;;;;2.03;1.42;;;9.60;55.40;;;;;;5088443;28;20499;-83
2023/04/03 13:07:38;;;;;;;1.85;1.30;;;9.60;56.20;;;;;;5089781;28;20508;-83
2023/04/03 13:10:15;;;;;;;4.18;1.42;;;9.60;56.60;;;;;;5089768;28;20454;-82
2023/04/03 13:12:49;;;;;;;1.95;1.08;;;9.50;56.30;;;;;;5054449;28;20040;-82
2023/04/03 13:15:19;;;;;;;1.70;0.90;;;9.50;56.00;;;;;;5072575;28;20052;-82